Airfield :
LOGIN :

Register | Disclaimer

   EN    FR    IT 

 










Legend :    VFR   Marginal VFR   IFR   Intensive IFR   Very Intensive IFR
Visi :
Ceiling :
>= 8 km
>= 3000ft
5 to 8 km
1000 to 3000 ft
1500m to 5 km
500 to 1000 ft
800 to 1500m
200 to 500 ft
< 800m
< 200 ft
Symbols :   Thunderstorms  Fog  Heavy snow  Heavy precipitations  Wind > 20 kt
SIGMETs :     Misc.  Thunderstorms  Icing  Turbulence  Mountain Waves  Volcanic Ashes






- Airport Elevation : 529 ft
- IATA code : CHR


LFLX - Chateauroux

CURRENT METAR :
  • 180030Z AUTO 00000KT 9999 OVC036 04/03 Q1011 TEMPO 0400 FG VV///

EXPIRED METARs :
  • 180000Z AUTO 32002KT 9999 OVC037 04/03 Q1011 BECMG 4000 BR
  • 172330Z AUTO 00000KT 9999 OVC035 04/03 Q1011 BECMG 4000 BR
  • 172300Z AUTO VRB02KT 9999 OVC033 05/03 Q1010 TEMPO 0800 FG VV///
  • 172230Z AUTO 24001KT 9999 OVC031 05/03 Q1010 TEMPO 0800 FG VV///
  • 172200Z AUTO 00000KT 9999 OVC030 05/03 Q1010 NOSIG

TAF TAF LFLX
Valid from the 18 at 00:00 until the 19 at 06:00 UTC


172300Z 1800/1906 VRB03KT 9999 SCT030
BECMG 1800/1802 4000 BR NSC
PROB40
TEMPO 1802/1809 0400 FG VV///
BECMG 1810/1812 9999 NSW SCT015
TEMPO 1818/1906 2000 -DZ BR BKN003



MET'MAP, your aeronautical weather chart ! - Copyright ORBIFLY December 2007 - Disclaimer

ORBIFLY MET'MAP TEAM :

Programming & Development : Alexandra Zaïnal
Concept & Development : Baudouin d'Aumeries
Co-Development & Prog : Marc-Olivier Méhu
Technical & hardware support : Manuel Goepfert

Contact : metmap@orbifly.com




SOURCES & CREDITS :

   NOAA